createdAt,value
2018-11-26T00:02:52.067Z,82.81
2018-11-26T00:05:57.615Z,82.77
2018-11-26T00:09:03.082Z,82.73
2018-11-26T00:12:08.574Z,83.03
2018-11-26T00:15:14.287Z,82.86
2018-11-26T00:18:19.698Z,83.44
2018-11-26T00:21:25.127Z,83.28
2018-11-26T00:24:30.603Z,83.96
2018-11-26T00:27:36.028Z,83.98
2018-11-26T00:30:41.491Z,83.66
2018-11-26T00:33:46.950Z,83.94
2018-11-26T00:36:52.783Z,84.01
2018-11-26T00:39:58.255Z,83.81
2018-11-26T00:43:03.686Z,83.64
2018-11-26T00:46:09.150Z,83.62
2018-11-26T00:49:14.510Z,83.51
2018-11-26T00:52:20.023Z,83.88
2018-11-26T00:55:25.408Z,83.28
2018-11-26T00:58:30.823Z,83.50
2018-11-26T01:01:36.387Z,83.73
2018-11-26T01:04:42.431Z,83.80
2018-11-26T01:07:47.779Z,83.97
2018-11-26T01:10:53.247Z,84.17
2018-11-26T01:13:58.704Z,84.47
2018-11-26T01:17:04.155Z,84.75
2018-11-26T01:20:09.603Z,84.54
2018-11-26T01:23:15.132Z,85.23
2018-11-26T01:26:21.321Z,85.15
2018-11-26T01:29:26.742Z,85.57
2018-11-26T01:32:32.246Z,85.53
2018-11-26T01:35:37.667Z,84.69
2018-11-26T01:38:43.107Z,85.67
2018-11-26T01:41:48.551Z,85.90
2018-11-26T01:44:54.087Z,85.57
2018-11-26T01:47:59.550Z,85.67
2018-11-26T01:51:04.908Z,86.07
2018-11-26T01:54:10.748Z,85.67
2018-11-26T01:57:16.211Z,85.61
2018-11-26T02:00:26.146Z,84.66
2018-11-26T02:03:31.555Z,85.42
2018-11-26T02:06:36.939Z,85.61
2018-11-26T02:09:42.298Z,85.83
2018-11-26T02:12:47.764Z,85.72
2018-11-26T02:15:53.117Z,85.68
2018-11-26T02:18:58.470Z,85.73
2018-11-26T02:22:04.015Z,85.91
2018-11-26T02:25:10.143Z,85.46
2018-11-26T02:28:15.514Z,85.25
2018-11-26T02:31:21.067Z,85.36
2018-11-26T02:34:26.395Z,85.52
2018-11-26T02:37:31.854Z,85.60
2018-11-26T02:40:37.195Z,85.24
2018-11-26T02:43:42.599Z,85.66
2018-11-26T02:46:47.985Z,85.19
2018-11-26T02:49:53.427Z,85.32
2018-11-26T02:52:58.828Z,85.63
2018-11-26T02:56:04.187Z,85.74
2018-11-26T02:59:09.599Z,85.49
2018-11-26T03:02:15.139Z,85.83
2018-11-26T03:05:35.306Z,85.67
2018-11-26T03:08:40.787Z,85.96
2018-11-26T03:11:46.251Z,86.38
2018-11-26T03:14:51.662Z,86.35
2018-11-26T03:17:57.132Z,85.94
2018-11-26T03:21:02.485Z,85.80
2018-11-26T03:24:08.339Z,86.39
2018-11-26T03:27:13.783Z,86.04
2018-11-26T03:30:22.181Z,85.70
2018-11-26T03:33:27.719Z,85.64
2018-11-26T03:36:33.179Z,86.14
2018-11-26T03:39:38.752Z,85.82
2018-11-26T03:42:44.822Z,86.10
2018-11-26T03:45:50.247Z,86.16
2018-11-26T03:48:55.718Z,85.92
2018-11-26T03:52:01.187Z,86.22
2018-11-26T03:55:08.675Z,86.05
2018-11-26T03:58:14.142Z,86.18
2018-11-26T04:01:19.639Z,86.03
2018-11-26T04:04:25.107Z,86.15
2018-11-26T04:07:30.467Z,86.29
2018-11-26T04:10:35.814Z,86.25
2018-11-26T04:13:41.299Z,86.59
2018-11-26T04:16:46.678Z,86.12
2018-11-26T04:19:52.151Z,86.17
2018-11-26T04:22:58.413Z,86.41
2018-11-26T04:26:03.851Z,86.13
2018-11-26T04:29:09.211Z,86.15
2018-11-26T04:32:14.853Z,86.13
2018-11-26T04:35:20.224Z,85.81
2018-11-26T04:38:25.760Z,86.13
2018-11-26T04:41:31.187Z,86.20
2018-11-26T04:44:36.556Z,86.40
2018-11-26T04:47:42.635Z,86.28
2018-11-26T04:50:48.067Z,86.00
2018-11-26T04:53:53.531Z,86.03
2018-11-26T04:56:58.949Z,86.33
2018-11-26T05:00:06.078Z,86.17
2018-11-26T05:03:11.620Z,85.83
2018-11-26T05:06:16.961Z,86.15
2018-11-26T05:09:22.400Z,85.40
2018-11-26T05:12:27.771Z,85.11
2018-11-26T05:15:33.179Z,85.26
2018-11-26T05:18:38.646Z,85.36
2018-11-26T05:21:44.103Z,85.05
2018-11-26T05:24:49.535Z,85.07
2018-11-26T05:27:54.966Z,84.35
2018-11-26T05:31:00.335Z,84.83
2018-11-26T05:34:06.199Z,84.33
2018-11-26T05:37:11.627Z,84.68
2018-11-26T05:40:17.205Z,83.77
2018-11-26T05:43:22.884Z,83.46
2018-11-26T05:46:28.275Z,83.35
2018-11-26T05:49:33.744Z,83.65
2018-11-26T05:52:40.547Z,83.81
2018-11-26T05:55:45.980Z,83.83
2018-11-26T05:58:51.424Z,84.16
2018-11-26T06:01:57.570Z,83.54
2018-11-26T06:05:02.935Z,83.92
2018-11-26T06:08:08.302Z,83.76
2018-11-26T06:11:13.835Z,83.94
2018-11-26T06:14:19.287Z,83.87
2018-11-26T06:17:24.768Z,83.40
2018-11-26T06:20:30.186Z,84.28
2018-11-26T06:23:35.707Z,84.81
2018-11-26T06:26:41.172Z,84.97
2018-11-26T06:29:46.628Z,84.70
2018-11-26T06:32:52.217Z,85.09
2018-11-26T06:35:57.572Z,84.83
2018-11-26T06:39:03.055Z,85.36
2018-11-26T06:42:08.527Z,85.50
2018-11-26T06:45:28.828Z,85.64
2018-11-26T06:48:35.856Z,86.05
2018-11-26T06:51:41.293Z,86.25
2018-11-26T06:54:46.797Z,85.70
2018-11-26T06:57:52.259Z,85.88
2018-11-26T07:00:57.962Z,86.20
2018-11-26T07:04:03.394Z,85.93
2018-11-26T07:07:08.776Z,86.15
2018-11-26T07:10:14.973Z,86.04
2018-11-26T07:13:20.664Z,85.86
2018-11-26T07:16:26.067Z,86.08
2018-11-26T07:19:31.447Z,85.80
2018-11-26T07:22:36.971Z,85.07
2018-11-26T07:25:42.407Z,86.25
2018-11-26T07:28:47.767Z,85.45
2018-11-26T07:31:53.832Z,85.71
2018-11-26T07:34:59.254Z,85.55
2018-11-26T07:38:04.738Z,85.95
2018-11-26T07:41:10.251Z,85.58
2018-11-26T07:44:15.736Z,85.29
2018-11-26T07:47:21.106Z,85.57
2018-11-26T07:50:26.769Z,85.40
2018-11-26T07:53:32.287Z,85.41
2018-11-26T07:56:37.628Z,84.96
2018-11-26T07:59:45.262Z,85.01
2018-11-26T08:02:52.066Z,85.14
2018-11-26T08:05:57.551Z,85.08
2018-11-26T08:09:04.375Z,84.98
2018-11-26T08:12:09.804Z,84.53
2018-11-26T08:15:18.984Z,84.29
2018-11-26T08:18:24.371Z,84.15
2018-11-26T08:21:29.740Z,84.10
2018-11-26T08:24:35.158Z,83.97
2018-11-26T08:27:42.245Z,83.35
2018-11-26T08:30:47.609Z,83.39
2018-11-26T08:33:53.003Z,82.25
2018-11-26T08:37:03.783Z,82.25
2018-11-26T08:40:12.351Z,82.55
2018-11-26T08:43:20.132Z,81.53
2018-11-26T08:46:36.881Z,80.64
2018-11-26T08:49:42.175Z,81.37
2018-11-26T08:52:47.565Z,80.57
2018-11-26T08:55:53.368Z,80.28
2018-11-26T08:58:58.791Z,80.35
2018-11-26T09:02:08.229Z,79.93
2018-11-26T09:05:23.944Z,79.62
2018-11-26T09:08:25.379Z,78.78
2018-11-26T09:11:30.876Z,78.05
2018-11-26T09:14:36.344Z,78.86
2018-11-26T09:17:41.766Z,78.74
2018-11-26T09:20:47.144Z,78.22
2018-11-26T09:23:53.307Z,78.23
2018-11-26T09:26:59.244Z,77.47
2018-11-26T09:30:06.048Z,77.31
2018-11-26T09:33:12.095Z,77.46
2018-11-26T09:36:17.466Z,76.98
2018-11-26T09:39:22.829Z,76.53
2018-11-26T09:42:29.067Z,76.46
2018-11-26T09:45:40.094Z,76.45
2018-11-26T09:48:40.138Z,75.75
2018-11-26T09:51:45.538Z,75.67
2018-11-26T09:54:50.976Z,74.89
2018-11-26T09:57:56.325Z,75.68
2018-11-26T10:01:02.077Z,75.30
2018-11-26T10:04:08.031Z,74.71
2018-11-26T10:07:13.355Z,75.02
2018-11-26T10:10:18.828Z,74.36
2018-11-26T10:13:24.409Z,74.00
2018-11-26T10:16:29.849Z,73.68
2018-11-26T10:19:35.271Z,72.24
2018-11-26T10:22:41.100Z,71.90
2018-11-26T10:25:47.088Z,71.34
2018-11-26T10:28:52.503Z,71.45
2018-11-26T10:31:58.495Z,70.55
2018-11-26T10:35:05.009Z,69.29
2018-11-26T10:38:10.519Z,68.53
2018-11-26T10:41:15.876Z,68.54
2018-11-26T10:44:21.300Z,68.18
2018-11-26T10:47:26.770Z,68.28
2018-11-26T10:50:32.307Z,68.65
2018-11-26T10:53:37.688Z,68.83
2018-11-26T10:56:43.111Z,68.14
2018-11-26T10:59:48.889Z,67.63
2018-11-26T11:02:54.377Z,67.03
2018-11-26T11:05:59.760Z,67.03
2018-11-26T11:09:07.508Z,66.22
2018-11-26T11:12:12.914Z,65.70
2018-11-26T11:15:19.018Z,63.67
2018-11-26T11:18:24.402Z,63.00
2018-11-26T11:21:29.888Z,61.76
2018-11-26T11:24:36.031Z,60.61
2018-11-26T11:30:46.946Z,57.78
2018-11-26T11:33:52.372Z,58.28
2018-11-26T11:36:57.845Z,56.47
2018-11-26T11:40:16.948Z,56.42
2018-11-26T11:43:22.364Z,57.51
2018-11-26T11:46:27.981Z,57.59
2018-11-26T11:49:33.537Z,55.39
2018-11-26T11:52:39.327Z,55.22
2018-11-26T11:55:44.876Z,53.68
2018-11-26T11:58:50.304Z,54.24
2018-11-26T12:01:56.184Z,54.36
2018-11-26T12:05:01.521Z,54.23
2018-11-26T12:08:08.617Z,53.68
2018-11-26T12:11:14.597Z,52.65
2018-11-26T12:14:20.223Z,52.32
2018-11-26T12:17:26.007Z,52.60
2018-11-26T12:20:31.127Z,51.67
2018-11-26T12:23:36.570Z,52.24
2018-11-26T12:26:42.032Z,51.88
2018-11-26T12:29:47.452Z,52.55
2018-11-26T12:32:52.924Z,52.78
2018-11-26T12:35:58.398Z,52.27
2018-11-26T12:39:04.481Z,52.37
2018-11-26T12:42:10.492Z,53.22
2018-11-26T12:45:22.858Z,52.96
2018-11-26T12:48:28.284Z,52.09
2018-11-26T12:51:33.680Z,51.90
2018-11-26T12:54:39.293Z,52.52
2018-11-26T12:57:45.729Z,52.30
2018-11-26T13:00:51.268Z,52.64
2018-11-26T13:03:56.745Z,54.15
2018-11-26T13:07:02.462Z,54.00
2018-11-26T13:10:11.900Z,54.12
2018-11-26T13:13:17.281Z,54.76
2018-11-26T13:16:22.704Z,54.48
2018-11-26T13:19:28.260Z,54.95
2018-11-26T13:22:34.129Z,54.69
2018-11-26T13:25:42.038Z,55.59
2018-11-26T13:28:46.453Z,55.46
2018-11-26T13:31:51.882Z,55.68
2018-11-26T13:34:57.348Z,56.24
2018-11-26T13:38:02.803Z,56.23
2018-11-26T13:41:08.544Z,56.68
2018-11-26T13:44:14.010Z,56.59
2018-11-26T13:47:19.445Z,56.19
2018-11-26T13:50:32.956Z,57.37
2018-11-26T13:53:38.352Z,57.65
2018-11-26T13:56:43.805Z,57.80
2018-11-26T13:59:49.240Z,58.71
2018-11-26T14:02:54.654Z,59.30
2018-11-26T14:06:00.757Z,60.51
2018-11-26T14:09:09.896Z,61.14
2018-11-26T14:12:15.448Z,60.57
2018-11-26T14:15:21.431Z,60.96
2018-11-26T14:18:26.832Z,61.50
2018-11-26T14:21:32.271Z,61.95
2018-11-26T14:24:37.693Z,62.26
2018-11-26T14:27:44.130Z,62.30
2018-11-26T14:30:49.597Z,63.48
2018-11-26T14:33:55.024Z,63.16
2018-11-26T14:37:00.368Z,63.54
2018-11-26T14:40:10.740Z,63.93
2018-11-26T14:43:16.157Z,64.35
2018-11-26T14:46:21.524Z,64.05
2018-11-26T14:49:26.924Z,64.57
2018-11-26T14:52:32.302Z,64.48
2018-11-26T14:55:39.620Z,64.76
2018-11-26T14:58:45.036Z,64.92
2018-11-26T15:01:50.453Z,65.13
2018-11-26T15:04:55.882Z,65.49
2018-11-26T15:08:01.437Z,66.00
2018-11-26T15:11:07.721Z,65.84
2018-11-26T15:14:13.109Z,65.58
2018-11-26T15:17:18.598Z,66.18
2018-11-26T15:20:26.376Z,65.34
2018-11-26T15:23:31.744Z,65.77
2018-11-26T15:26:37.132Z,65.72
2018-11-26T15:29:42.533Z,65.64
2018-11-26T15:32:47.968Z,65.36
2018-11-26T15:35:53.409Z,65.04
2018-11-26T15:38:58.841Z,65.40
2018-11-26T15:42:04.264Z,64.96
2018-11-26T15:45:23.086Z,64.97
2018-11-26T15:48:28.417Z,64.36
2018-11-26T15:51:33.817Z,64.75
2018-11-26T15:54:39.242Z,64.61
2018-11-26T15:57:44.715Z,65.21
2018-11-26T16:00:50.113Z,65.04
2018-11-26T16:03:56.129Z,65.35
2018-11-26T16:07:01.521Z,65.52
2018-11-26T16:10:10.090Z,65.23
2018-11-26T16:13:16.841Z,66.03
2018-11-26T16:16:22.754Z,65.42
2018-11-26T16:19:28.251Z,65.21
2018-11-26T16:22:33.677Z,65.40
2018-11-26T16:25:42.821Z,66.23
2018-11-26T16:28:48.159Z,66.07
2018-11-26T16:31:53.704Z,65.64
2018-11-26T16:34:59.237Z,66.12
2018-11-26T16:38:04.714Z,66.01
2018-11-26T16:41:10.078Z,66.44
2018-11-26T16:44:15.619Z,66.64
2018-11-26T16:47:21.086Z,66.70
2018-11-26T16:50:29.481Z,66.47
2018-11-26T16:53:34.876Z,66.62
2018-11-26T16:56:40.667Z,67.62
2018-11-26T16:59:46.124Z,67.75
2018-11-26T17:02:53.221Z,67.39
2018-11-26T17:05:58.782Z,67.85
2018-11-26T17:09:05.584Z,67.65
2018-11-26T17:12:11.096Z,68.40
2018-11-26T17:15:18.564Z,68.88
2018-11-26T17:18:23.987Z,68.78
2018-11-26T17:21:29.336Z,68.79
2018-11-26T17:24:34.709Z,68.20
2018-11-26T17:27:41.392Z,68.72
2018-11-26T17:30:46.804Z,68.31
2018-11-26T17:33:52.228Z,68.50
2018-11-26T17:36:57.688Z,68.98
2018-11-26T17:40:03.129Z,69.32
2018-11-26T17:43:13.557Z,68.98
2018-11-26T17:46:19.020Z,68.84
2018-11-26T17:49:24.472Z,69.86
2018-11-26T17:52:30.516Z,69.16
2018-11-26T17:55:48.900Z,68.20
2018-11-26T17:58:54.320Z,68.77
2018-11-26T18:02:01.128Z,69.01
2018-11-26T18:05:10.804Z,68.80
2018-11-26T18:08:17.924Z,68.14
2018-11-26T18:11:23.401Z,67.16
2018-11-26T18:14:28.836Z,67.56
2018-11-26T18:17:34.229Z,67.72
2018-11-26T18:20:39.852Z,66.63
2018-11-26T18:23:45.322Z,66.81
2018-11-26T18:26:50.956Z,65.61
2018-11-26T18:29:58.447Z,65.65
2018-11-26T18:33:03.936Z,65.71
2018-11-26T18:36:09.374Z,65.51
2018-11-26T18:39:15.188Z,64.34
2018-11-26T18:42:21.789Z,65.07
2018-11-26T18:45:27.148Z,64.36
2018-11-26T18:48:32.580Z,64.84
2018-11-26T18:51:38.033Z,64.21
2018-11-26T18:54:43.454Z,64.65
2018-11-26T18:57:48.944Z,64.37
2018-11-26T19:00:57.436Z,64.60
2018-11-26T19:04:02.776Z,64.23
2018-11-26T19:07:08.649Z,63.70
2018-11-26T19:10:20.846Z,64.03
2018-11-26T19:13:29.420Z,64.27
2018-11-26T19:16:38.828Z,64.61
2018-11-26T19:19:44.367Z,64.65
2018-11-26T19:22:49.846Z,65.02
2018-11-26T19:25:55.660Z,64.77
2018-11-26T19:29:01.120Z,64.52
2018-11-26T19:32:07.020Z,64.00
2018-11-26T19:35:14.593Z,64.46
2018-11-26T19:38:20.033Z,64.09
2018-11-26T19:41:25.900Z,64.18
2018-11-26T19:44:31.659Z,64.23
2018-11-26T19:47:37.592Z,63.58
2018-11-26T19:50:43.824Z,63.26
2018-11-26T19:53:49.228Z,63.23
2018-11-26T19:56:54.629Z,63.31
2018-11-26T20:00:00.040Z,62.93
2018-11-26T20:03:18.976Z,62.71
2018-11-26T20:06:26.255Z,61.93
2018-11-26T20:09:32.472Z,62.52
2018-11-26T20:12:38.053Z,61.37
2018-11-26T20:15:43.464Z,61.66
2018-11-26T20:18:48.910Z,61.75
2018-11-26T20:21:54.312Z,62.14
2018-11-26T20:24:59.821Z,61.83
2018-11-26T20:28:05.663Z,62.30
2018-11-26T20:31:12.567Z,61.42
2018-11-26T20:34:17.971Z,62.34
2018-11-26T20:37:23.412Z,63.25
2018-11-26T20:40:28.903Z,63.75
2018-11-26T20:43:34.428Z,63.99
2018-11-26T20:46:40.393Z,64.53
2018-11-26T20:49:45.853Z,65.08
2018-11-26T20:52:51.228Z,65.47
2018-11-26T20:55:56.772Z,66.08
2018-11-26T20:59:02.184Z,66.32
2018-11-26T21:02:08.030Z,66.63
2018-11-26T21:05:13.492Z,67.63
2018-11-26T21:08:19.188Z,68.09
2018-11-26T21:11:24.697Z,68.22
2018-11-26T21:14:30.168Z,68.16
2018-11-26T21:17:37.229Z,68.15
2018-11-26T21:20:50.908Z,68.76
2018-11-26T21:23:56.448Z,68.63
2018-11-26T21:27:02.007Z,69.40
2018-11-26T21:30:14.669Z,69.04
2018-11-26T21:33:20.045Z,69.56
2018-11-26T21:36:25.793Z,70.03
2018-11-26T21:39:31.144Z,70.80
2018-11-26T21:42:36.628Z,71.21
2018-11-26T21:46:00.969Z,71.80
2018-11-26T21:49:06.857Z,72.13
2018-11-26T21:52:12.316Z,72.37
2018-11-26T21:55:18.732Z,72.89
2018-11-26T21:58:24.318Z,73.14
2018-11-26T22:01:29.975Z,73.34
2018-11-26T22:04:35.446Z,73.61
2018-11-26T22:07:40.849Z,73.68
2018-11-26T22:10:46.329Z,74.33
2018-11-26T22:13:51.844Z,74.75
2018-11-26T22:16:57.607Z,74.81
2018-11-26T22:20:03.001Z,75.19
2018-11-26T22:23:09.496Z,74.99
2018-11-26T22:26:14.996Z,75.01
2018-11-26T22:29:20.333Z,75.24
2018-11-26T22:32:25.748Z,75.50
2018-11-26T22:35:31.108Z,75.78
2018-11-26T22:38:36.473Z,75.52
2018-11-26T22:41:41.871Z,76.32
2018-11-26T22:44:47.216Z,76.24
2018-11-26T22:48:02.395Z,76.65
2018-11-26T22:51:08.115Z,76.30
2018-11-26T22:54:13.532Z,76.65
2018-11-26T22:57:18.943Z,76.48
2018-11-26T23:00:30.388Z,76.86
2018-11-26T23:03:36.431Z,76.96
2018-11-26T23:06:41.804Z,77.25
2018-11-26T23:09:47.228Z,78.12
2018-11-26T23:12:52.697Z,78.12
2018-11-26T23:15:58.144Z,78.35
2018-11-26T23:19:03.488Z,78.10
2018-11-26T23:22:09.068Z,78.09
2018-11-26T23:25:16.962Z,77.77
2018-11-26T23:28:22.427Z,77.90
2018-11-26T23:31:27.976Z,78.11
2018-11-26T23:34:33.400Z,78.55
2018-11-26T23:37:38.868Z,79.13
2018-11-26T23:40:44.276Z,78.43
2018-11-26T23:43:51.835Z,78.81
2018-11-26T23:46:57.192Z,78.86
2018-11-26T23:50:02.660Z,79.53
2018-11-26T23:53:08.752Z,79.73
2018-11-26T23:56:14.201Z,79.77
2018-11-26T23:59:19.552Z,79.71
